sensor_id;sensor_type;location;lat;lon;timestamp;P1;durP1;ratioP1;P2;durP2;ratioP2
11187;SDS011;5650;52.700;7.306;2024-03-02T00:02:00;7.50;;;5.78;;
11187;SDS011;5650;52.700;7.306;2024-03-02T00:04:45;8.95;;;5.90;;
11187;SDS011;5650;52.700;7.306;2024-03-02T00:07:12;7.00;;;5.70;;
11187;SDS011;5650;52.700;7.306;2024-03-02T00:09:41;7.90;;;5.82;;
11187;SDS011;5650;52.700;7.306;2024-03-02T00:12:08;9.45;;;6.15;;
11187;SDS011;5650;52.700;7.306;2024-03-02T00:14:41;7.20;;;5.65;;
11187;SDS011;5650;52.700;7.306;2024-03-02T00:17:17;7.32;;;5.80;;
11187;SDS011;5650;52.700;7.306;2024-03-02T00:19:56;7.50;;;5.82;;
11187;SDS011;5650;52.700;7.306;2024-03-02T00:22:26;7.68;;;5.85;;
11187;SDS011;5650;52.700;7.306;2024-03-02T00:24:56;7.35;;;5.85;;
11187;SDS011;5650;52.700;7.306;2024-03-02T00:27:24;8.57;;;6.10;;
11187;SDS011;5650;52.700;7.306;2024-03-02T00:29:52;7.28;;;5.70;;
11187;SDS011;5650;52.700;7.306;2024-03-02T00:32:19;8.77;;;5.53;;
11187;SDS011;5650;52.700;7.306;2024-03-02T00:34:46;9.10;;;5.65;;
11187;SDS011;5650;52.700;7.306;2024-03-02T00:37:15;6.68;;;5.18;;
11187;SDS011;5650;52.700;7.306;2024-03-02T00:39:42;6.40;;;4.80;;
11187;SDS011;5650;52.700;7.306;2024-03-02T00:42:11;7.13;;;5.30;;
11187;SDS011;5650;52.700;7.306;2024-03-02T00:44:38;10.18;;;4.90;;
11187;SDS011;5650;52.700;7.306;2024-03-02T00:47:12;7.70;;;5.18;;
11187;SDS011;5650;52.700;7.306;2024-03-02T00:49:39;6.85;;;4.97;;
11187;SDS011;5650;52.700;7.306;2024-03-02T00:52:09;8.48;;;4.93;;
11187;SDS011;5650;52.700;7.306;2024-03-02T00:54:38;5.68;;;4.82;;
11187;SDS011;5650;52.700;7.306;2024-03-02T00:57:09;6.38;;;4.97;;
11187;SDS011;5650;52.700;7.306;2024-03-02T00:59:37;7.03;;;4.82;;
11187;SDS011;5650;52.700;7.306;2024-03-02T01:02:04;5.45;;;4.32;;
11187;SDS011;5650;52.700;7.306;2024-03-02T01:04:31;5.82;;;4.20;;
11187;SDS011;5650;52.700;7.306;2024-03-02T01:07:01;5.97;;;4.35;;
11187;SDS011;5650;52.700;7.306;2024-03-02T01:09:31;4.22;;;3.80;;
11187;SDS011;5650;52.700;7.306;2024-03-02T01:11:59;5.72;;;4.40;;
11187;SDS011;5650;52.700;7.306;2024-03-02T01:14:27;9.55;;;5.05;;
11187;SDS011;5650;52.700;7.306;2024-03-02T01:17:03;8.18;;;4.75;;
11187;SDS011;5650;52.700;7.306;2024-03-02T01:19:30;8.57;;;4.95;;
11187;SDS011;5650;52.700;7.306;2024-03-02T01:21:58;7.45;;;4.55;;
11187;SDS011;5650;52.700;7.306;2024-03-02T01:24:28;6.25;;;3.92;;
11187;SDS011;5650;52.700;7.306;2024-03-02T01:27:04;8.27;;;4.97;;
11187;SDS011;5650;52.700;7.306;2024-03-02T01:29:34;7.38;;;4.70;;
11187;SDS011;5650;52.700;7.306;2024-03-02T01:32:01;11.20;;;5.00;;
11187;SDS011;5650;52.700;7.306;2024-03-02T01:34:34;6.97;;;4.60;;
11187;SDS011;5650;52.700;7.306;2024-03-02T01:37:01;4.05;;;3.55;;
11187;SDS011;5650;52.700;7.306;2024-03-02T01:39:28;5.28;;;3.88;;
11187;SDS011;5650;52.700;7.306;2024-03-02T01:41:56;4.43;;;3.42;;
11187;SDS011;5650;52.700;7.306;2024-03-02T01:44:25;4.93;;;3.75;;
11187;SDS011;5650;52.700;7.306;2024-03-02T01:46:55;4.78;;;3.92;;
11187;SDS011;5650;52.700;7.306;2024-03-02T01:49:22;5.55;;;4.10;;
11187;SDS011;5650;52.700;7.306;2024-03-02T01:51:49;4.93;;;3.58;;
11187;SDS011;5650;52.700;7.306;2024-03-02T01:54:22;4.90;;;3.75;;
11187;SDS011;5650;52.700;7.306;2024-03-02T01:56:52;4.07;;;3.05;;
11187;SDS011;5650;52.700;7.306;2024-03-02T01:59:19;5.57;;;3.47;;
11187;SDS011;5650;52.700;7.306;2024-03-02T02:01:51;3.70;;;3.05;;
11187;SDS011;5650;52.700;7.306;2024-03-02T02:04:21;6.93;;;3.00;;
11187;SDS011;5650;52.700;7.306;2024-03-02T02:06:52;5.07;;;3.20;;
11187;SDS011;5650;52.700;7.306;2024-03-02T02:09:22;4.93;;;3.20;;
11187;SDS011;5650;52.700;7.306;2024-03-02T02:11:50;4.70;;;3.25;;
11187;SDS011;5650;52.700;7.306;2024-03-02T02:14:20;3.83;;;2.88;;
11187;SDS011;5650;52.700;7.306;2024-03-02T02:16:52;6.70;;;2.83;;
11187;SDS011;5650;52.700;7.306;2024-03-02T02:19:19;3.00;;;2.70;;
11187;SDS011;5650;52.700;7.306;2024-03-02T02:21:51;6.85;;;3.40;;
11187;SDS011;5650;52.700;7.306;2024-03-02T02:24:18;3.35;;;2.90;;
11187;SDS011;5650;52.700;7.306;2024-03-02T02:26:48;3.50;;;3.00;;
11187;SDS011;5650;52.700;7.306;2024-03-02T02:29:16;2.75;;;2.35;;
11187;SDS011;5650;52.700;7.306;2024-03-02T02:31:46;2.80;;;2.50;;
11187;SDS011;5650;52.700;7.306;2024-03-02T02:34:16;5.35;;;3.13;;
11187;SDS011;5650;52.700;7.306;2024-03-02T02:36:43;2.97;;;2.67;;
11187;SDS011;5650;52.700;7.306;2024-03-02T02:39:13;3.13;;;2.42;;
11187;SDS011;5650;52.700;7.306;2024-03-02T02:41:43;4.70;;;2.50;;
11187;SDS011;5650;52.700;7.306;2024-03-02T02:44:10;3.83;;;2.88;;
11187;SDS011;5650;52.700;7.306;2024-03-02T02:46:38;6.00;;;3.10;;
11187;SDS011;5650;52.700;7.306;2024-03-02T02:49:05;3.38;;;2.78;;
11187;SDS011;5650;52.700;7.306;2024-03-02T02:51:38;3.17;;;2.88;;
11187;SDS011;5650;52.700;7.306;2024-03-02T02:54:05;4.22;;;2.60;;
11187;SDS011;5650;52.700;7.306;2024-03-02T02:56:40;4.07;;;3.03;;
11187;SDS011;5650;52.700;7.306;2024-03-02T02:59:07;3.35;;;2.55;;
11187;SDS011;5650;52.700;7.306;2024-03-02T03:01:34;3.58;;;2.67;;
11187;SDS011;5650;52.700;7.306;2024-03-02T03:04:01;5.70;;;3.30;;
11187;SDS011;5650;52.700;7.306;2024-03-02T03:06:34;3.95;;;2.63;;
11187;SDS011;5650;52.700;7.306;2024-03-02T03:09:01;4.03;;;3.10;;
11187;SDS011;5650;52.700;7.306;2024-03-02T03:11:33;3.85;;;2.63;;
11187;SDS011;5650;52.700;7.306;2024-03-02T03:14:00;5.35;;;2.97;;
11187;SDS011;5650;52.700;7.306;2024-03-02T03:16:31;3.28;;;2.75;;
11187;SDS011;5650;52.700;7.306;2024-03-02T03:19:07;4.15;;;2.65;;
11187;SDS011;5650;52.700;7.306;2024-03-02T03:21:37;3.00;;;2.63;;
11187;SDS011;5650;52.700;7.306;2024-03-02T03:24:04;5.47;;;3.30;;
11187;SDS011;5650;52.700;7.306;2024-03-02T03:26:36;3.10;;;2.80;;
11187;SDS011;5650;52.700;7.306;2024-03-02T03:29:05;2.80;;;2.38;;
11187;SDS011;5650;52.700;7.306;2024-03-02T03:31:35;3.67;;;2.90;;
11187;SDS011;5650;52.700;7.306;2024-03-02T03:34:02;3.75;;;3.05;;
11187;SDS011;5650;52.700;7.306;2024-03-02T03:36:29;3.17;;;2.55;;
11187;SDS011;5650;52.700;7.306;2024-03-02T03:38:56;3.88;;;2.63;;
11187;SDS011;5650;52.700;7.306;2024-03-02T03:41:24;3.55;;;2.92;;
11187;SDS011;5650;52.700;7.306;2024-03-02T03:43:52;2.75;;;2.45;;
11187;SDS011;5650;52.700;7.306;2024-03-02T03:46:20;3.10;;;2.40;;
11187;SDS011;5650;52.700;7.306;2024-03-02T03:48:47;4.30;;;2.90;;
11187;SDS011;5650;52.700;7.306;2024-03-02T03:51:15;2.88;;;2.38;;
11187;SDS011;5650;52.700;7.306;2024-03-02T03:53:42;3.75;;;2.60;;
11187;SDS011;5650;52.700;7.306;2024-03-02T03:56:12;4.28;;;2.85;;
11187;SDS011;5650;52.700;7.306;2024-03-02T03:58:39;2.80;;;2.40;;
11187;SDS011;5650;52.700;7.306;2024-03-02T04:01:08;4.07;;;2.85;;
11187;SDS011;5650;52.700;7.306;2024-03-02T04:03:35;3.70;;;2.85;;
11187;SDS011;5650;52.700;7.306;2024-03-02T04:06:05;3.08;;;2.63;;
11187;SDS011;5650;52.700;7.306;2024-03-02T04:08:36;5.47;;;3.00;;
11187;SDS011;5650;52.700;7.306;2024-03-02T04:11:06;6.90;;;3.10;;
11187;SDS011;5650;52.700;7.306;2024-03-02T04:13:39;5.45;;;2.63;;
11187;SDS011;5650;52.700;7.306;2024-03-02T04:16:17;3.50;;;2.70;;
11187;SDS011;5650;52.700;7.306;2024-03-02T04:18:44;3.17;;;2.50;;
11187;SDS011;5650;52.700;7.306;2024-03-02T04:21:11;3.90;;;2.53;;
11187;SDS011;5650;52.700;7.306;2024-03-02T04:23:38;4.82;;;2.65;;
11187;SDS011;5650;52.700;7.306;2024-03-02T04:26:05;3.35;;;2.42;;
11187;SDS011;5650;52.700;7.306;2024-03-02T04:28:32;4.78;;;2.60;;
11187;SDS011;5650;52.700;7.306;2024-03-02T04:31:05;3.53;;;2.53;;
11187;SDS011;5650;52.700;7.306;2024-03-02T04:33:37;3.83;;;2.72;;
11187;SDS011;5650;52.700;7.306;2024-03-02T04:36:06;4.82;;;2.75;;
11187;SDS011;5650;52.700;7.306;2024-03-02T04:38:40;5.63;;;2.97;;
11187;SDS011;5650;52.700;7.306;2024-03-02T04:41:11;4.05;;;2.97;;
11187;SDS011;5650;52.700;7.306;2024-03-02T04:43:38;3.70;;;2.70;;
11187;SDS011;5650;52.700;7.306;2024-03-02T04:46:05;7.55;;;3.03;;
11187;SDS011;5650;52.700;7.306;2024-03-02T04:48:37;4.45;;;3.38;;
11187;SDS011;5650;52.700;7.306;2024-03-02T04:51:04;5.57;;;3.28;;
11187;SDS011;5650;52.700;7.306;2024-03-02T04:53:34;4.13;;;3.00;;
11187;SDS011;5650;52.700;7.306;2024-03-02T04:56:02;5.18;;;3.00;;
11187;SDS011;5650;52.700;7.306;2024-03-02T04:58:46;4.15;;;3.00;;
11187;SDS011;5650;52.700;7.306;2024-03-02T05:01:13;3.63;;;2.83;;
11187;SDS011;5650;52.700;7.306;2024-03-02T05:03:46;5.80;;;2.88;;
11187;SDS011;5650;52.700;7.306;2024-03-02T05:06:13;3.15;;;2.80;;
11187;SDS011;5650;52.700;7.306;2024-03-02T05:08:44;3.92;;;2.75;;
11187;SDS011;5650;52.700;7.306;2024-03-02T05:11:11;3.28;;;2.63;;
11187;SDS011;5650;52.700;7.306;2024-03-02T05:13:55;4.28;;;3.30;;
11187;SDS011;5650;52.700;7.306;2024-03-02T05:16:26;3.80;;;3.10;;
11187;SDS011;5650;52.700;7.306;2024-03-02T05:18:54;3.47;;;3.08;;
11187;SDS011;5650;52.700;7.306;2024-03-02T05:21:21;4.05;;;3.10;;
11187;SDS011;5650;52.700;7.306;2024-03-02T05:23:48;4.28;;;3.47;;
11187;SDS011;5650;52.700;7.306;2024-03-02T05:26:18;4.63;;;3.13;;
11187;SDS011;5650;52.700;7.306;2024-03-02T05:28:46;5.07;;;3.33;;
11187;SDS011;5650;52.700;7.306;2024-03-02T05:31:13;5.95;;;3.40;;
11187;SDS011;5650;52.700;7.306;2024-03-02T05:33:42;4.10;;;3.47;;
11187;SDS011;5650;52.700;7.306;2024-03-02T05:36:11;5.80;;;3.83;;
11187;SDS011;5650;52.700;7.306;2024-03-02T05:38:41;4.00;;;3.33;;
11187;SDS011;5650;52.700;7.306;2024-03-02T05:41:12;4.60;;;3.28;;
11187;SDS011;5650;52.700;7.306;2024-03-02T05:43:52;5.32;;;3.33;;
11187;SDS011;5650;52.700;7.306;2024-03-02T05:46:19;5.72;;;3.50;;
11187;SDS011;5650;52.700;7.306;2024-03-02T05:48:47;5.38;;;3.55;;
11187;SDS011;5650;52.700;7.306;2024-03-02T05:51:15;5.00;;;3.63;;
11187;SDS011;5650;52.700;7.306;2024-03-02T05:53:43;5.18;;;4.03;;
11187;SDS011;5650;52.700;7.306;2024-03-02T05:56:16;4.75;;;3.30;;
11187;SDS011;5650;52.700;7.306;2024-03-02T05:58:43;5.35;;;3.70;;
11187;SDS011;5650;52.700;7.306;2024-03-02T06:01:22;6.18;;;3.78;;
11187;SDS011;5650;52.700;7.306;2024-03-02T06:03:53;4.68;;;3.92;;
11187;SDS011;5650;52.700;7.306;2024-03-02T06:06:27;6.30;;;4.60;;
11187;SDS011;5650;52.700;7.306;2024-03-02T06:08:54;5.47;;;3.92;;
11187;SDS011;5650;52.700;7.306;2024-03-02T06:11:30;7.65;;;4.30;;
11187;SDS011;5650;52.700;7.306;2024-03-02T06:14:07;5.53;;;3.72;;
11187;SDS011;5650;52.700;7.306;2024-03-02T06:16:35;5.45;;;3.78;;
11187;SDS011;5650;52.700;7.306;2024-03-02T06:19:02;6.20;;;4.50;;
11187;SDS011;5650;52.700;7.306;2024-03-02T06:21:38;5.50;;;3.80;;
11187;SDS011;5650;52.700;7.306;2024-03-02T06:24:08;8.80;;;4.22;;
11187;SDS011;5650;52.700;7.306;2024-03-02T06:26:38;7.75;;;4.93;;
11187;SDS011;5650;52.700;7.306;2024-03-02T06:29:08;4.78;;;4.10;;
11187;SDS011;5650;52.700;7.306;2024-03-02T06:31:38;7.80;;;4.20;;
11187;SDS011;5650;52.700;7.306;2024-03-02T06:34:05;4.40;;;3.85;;
11187;SDS011;5650;52.700;7.306;2024-03-02T06:36:35;7.10;;;4.03;;
11187;SDS011;5650;52.700;7.306;2024-03-02T06:39:05;5.15;;;4.15;;
11187;SDS011;5650;52.700;7.306;2024-03-02T06:41:35;5.53;;;4.20;;
11187;SDS011;5650;52.700;7.306;2024-03-02T06:44:08;5.57;;;4.45;;
11187;SDS011;5650;52.700;7.306;2024-03-02T06:46:35;8.80;;;4.80;;
11187;SDS011;5650;52.700;7.306;2024-03-02T06:49:02;5.72;;;4.75;;
11187;SDS011;5650;52.700;7.306;2024-03-02T06:51:29;5.40;;;4.15;;
11187;SDS011;5650;52.700;7.306;2024-03-02T06:53:58;7.85;;;4.05;;
11187;SDS011;5650;52.700;7.306;2024-03-02T06:56:28;6.20;;;4.28;;
11187;SDS011;5650;52.700;7.306;2024-03-02T06:58:59;5.63;;;4.47;;
11187;SDS011;5650;52.700;7.306;2024-03-02T07:01:26;6.65;;;4.68;;
11187;SDS011;5650;52.700;7.306;2024-03-02T07:03:56;5.78;;;4.15;;
11187;SDS011;5650;52.700;7.306;2024-03-02T07:06:26;6.68;;;4.00;;
11187;SDS011;5650;52.700;7.306;2024-03-02T07:09:10;5.28;;;4.15;;
11187;SDS011;5650;52.700;7.306;2024-03-02T07:11:37;5.15;;;3.88;;
11187;SDS011;5650;52.700;7.306;2024-03-02T07:14:04;5.05;;;4.13;;
11187;SDS011;5650;52.700;7.306;2024-03-02T07:16:31;4.22;;;3.60;;
11187;SDS011;5650;52.700;7.306;2024-03-02T07:19:03;4.60;;;3.88;;
11187;SDS011;5650;52.700;7.306;2024-03-02T07:21:33;7.47;;;4.63;;
11187;SDS011;5650;52.700;7.306;2024-03-02T07:24:01;8.38;;;4.55;;
11187;SDS011;5650;52.700;7.306;2024-03-02T07:26:33;5.40;;;4.07;;
11187;SDS011;5650;52.700;7.306;2024-03-02T07:29:04;5.00;;;4.38;;
11187;SDS011;5650;52.700;7.306;2024-03-02T07:31:40;6.00;;;4.07;;
11187;SDS011;5650;52.700;7.306;2024-03-02T07:34:07;5.15;;;4.10;;
11187;SDS011;5650;52.700;7.306;2024-03-02T07:36:34;5.55;;;4.00;;
11187;SDS011;5650;52.700;7.306;2024-03-02T07:39:04;6.57;;;3.78;;
11187;SDS011;5650;52.700;7.306;2024-03-02T07:41:34;6.63;;;4.03;;
11187;SDS011;5650;52.700;7.306;2024-03-02T07:44:01;4.45;;;3.15;;
11187;SDS011;5650;52.700;7.306;2024-03-02T07:46:38;4.50;;;3.75;;
11187;SDS011;5650;52.700;7.306;2024-03-02T07:49:05;5.82;;;4.10;;
11187;SDS011;5650;52.700;7.306;2024-03-02T07:51:35;4.95;;;4.00;;
11187;SDS011;5650;52.700;7.306;2024-03-02T07:54:05;5.32;;;3.40;;
11187;SDS011;5650;52.700;7.306;2024-03-02T07:56:37;4.68;;;3.80;;
11187;SDS011;5650;52.700;7.306;2024-03-02T07:59:07;4.93;;;3.22;;
11187;SDS011;5650;52.700;7.306;2024-03-02T08:01:38;4.70;;;3.28;;
11187;SDS011;5650;52.700;7.306;2024-03-02T08:04:07;6.00;;;3.88;;
11187;SDS011;5650;52.700;7.306;2024-03-02T08:06:34;5.18;;;3.50;;
11187;SDS011;5650;52.700;7.306;2024-03-02T08:09:02;5.32;;;3.58;;
11187;SDS011;5650;52.700;7.306;2024-03-02T08:11:34;5.15;;;3.60;;
11187;SDS011;5650;52.700;7.306;2024-03-02T08:14:03;4.93;;;2.83;;
11187;SDS011;5650;52.700;7.306;2024-03-02T08:16:39;6.50;;;3.15;;
11187;SDS011;5650;52.700;7.306;2024-03-02T08:19:12;4.75;;;3.40;;
11187;SDS011;5650;52.700;7.306;2024-03-02T08:21:42;7.65;;;3.00;;
11187;SDS011;5650;52.700;7.306;2024-03-02T08:24:13;4.93;;;2.97;;
11187;SDS011;5650;52.700;7.306;2024-03-02T08:26:43;3.90;;;3.03;;
11187;SDS011;5650;52.700;7.306;2024-03-02T08:29:12;4.95;;;3.10;;
11187;SDS011;5650;52.700;7.306;2024-03-02T08:31:39;3.75;;;2.83;;
11187;SDS011;5650;52.700;7.306;2024-03-02T08:34:06;4.60;;;3.33;;
11187;SDS011;5650;52.700;7.306;2024-03-02T08:36:32;5.30;;;3.17;;
11187;SDS011;5650;52.700;7.306;2024-03-02T08:39:08;3.72;;;3.33;;
11187;SDS011;5650;52.700;7.306;2024-03-02T08:41:40;5.93;;;3.20;;
11187;SDS011;5650;52.700;7.306;2024-03-02T08:44:26;4.25;;;3.17;;
11187;SDS011;5650;52.700;7.306;2024-03-02T08:47:02;5.00;;;3.15;;
11187;SDS011;5650;52.700;7.306;2024-03-02T08:49:32;5.57;;;3.38;;
11187;SDS011;5650;52.700;7.306;2024-03-02T08:51:59;5.28;;;3.70;;
11187;SDS011;5650;52.700;7.306;2024-03-02T08:54:27;3.65;;;3.00;;
11187;SDS011;5650;52.700;7.306;2024-03-02T08:56:54;5.13;;;3.45;;
11187;SDS011;5650;52.700;7.306;2024-03-02T08:59:26;5.22;;;3.17;;
11187;SDS011;5650;52.700;7.306;2024-03-02T09:01:55;4.10;;;2.85;;
11187;SDS011;5650;52.700;7.306;2024-03-02T09:04:23;7.85;;;3.45;;
11187;SDS011;5650;52.700;7.306;2024-03-02T09:06:50;4.70;;;2.83;;
11187;SDS011;5650;52.700;7.306;2024-03-02T09:09:23;4.15;;;3.13;;
11187;SDS011;5650;52.700;7.306;2024-03-02T09:11:50;5.00;;;2.90;;
11187;SDS011;5650;52.700;7.306;2024-03-02T09:14:19;4.28;;;2.85;;
11187;SDS011;5650;52.700;7.306;2024-03-02T09:16:48;4.97;;;2.70;;
11187;SDS011;5650;52.700;7.306;2024-03-02T09:19:15;3.83;;;2.78;;
11187;SDS011;5650;52.700;7.306;2024-03-02T09:21:46;2.95;;;2.58;;
11187;SDS011;5650;52.700;7.306;2024-03-02T09:24:18;3.97;;;3.03;;
11187;SDS011;5650;52.700;7.306;2024-03-02T09:26:45;5.95;;;3.03;;
11187;SDS011;5650;52.700;7.306;2024-03-02T09:29:12;6.30;;;2.90;;
11187;SDS011;5650;52.700;7.306;2024-03-02T09:31:39;3.80;;;2.75;;
11187;SDS011;5650;52.700;7.306;2024-03-02T09:34:08;6.30;;;3.20;;
11187;SDS011;5650;52.700;7.306;2024-03-02T09:36:35;4.53;;;2.50;;
11187;SDS011;5650;52.700;7.306;2024-03-02T09:39:03;3.65;;;2.45;;
11187;SDS011;5650;52.700;7.306;2024-03-02T09:41:33;5.00;;;2.58;;
11187;SDS011;5650;52.700;7.306;2024-03-02T09:44:03;4.32;;;2.60;;
11187;SDS011;5650;52.700;7.306;2024-03-02T09:46:34;5.50;;;3.05;;
11187;SDS011;5650;52.700;7.306;2024-03-02T09:49:01;4.13;;;2.25;;
11187;SDS011;5650;52.700;7.306;2024-03-02T09:51:30;4.05;;;2.92;;
11187;SDS011;5650;52.700;7.306;2024-03-02T09:54:08;6.03;;;2.85;;
11187;SDS011;5650;52.700;7.306;2024-03-02T09:56:35;6.45;;;3.05;;
11187;SDS011;5650;52.700;7.306;2024-03-02T09:59:10;2.95;;;2.20;;
11187;SDS011;5650;52.700;7.306;2024-03-02T10:01:38;4.18;;;2.75;;
11187;SDS011;5650;52.700;7.306;2024-03-02T10:04:05;5.82;;;2.58;;
11187;SDS011;5650;52.700;7.306;2024-03-02T10:06:34;3.63;;;2.40;;
11187;SDS011;5650;52.700;7.306;2024-03-02T10:09:07;3.47;;;2.40;;
11187;SDS011;5650;52.700;7.306;2024-03-02T10:11:35;3.58;;;2.58;;
11187;SDS011;5650;52.700;7.306;2024-03-02T10:14:04;6.00;;;2.70;;
11187;SDS011;5650;52.700;7.306;2024-03-02T10:16:41;3.13;;;2.20;;
11187;SDS011;5650;52.700;7.306;2024-03-02T10:19:15;2.80;;;1.77;;
11187;SDS011;5650;52.700;7.306;2024-03-02T10:21:45;3.63;;;1.83;;
11187;SDS011;5650;52.700;7.306;2024-03-02T10:24:23;4.35;;;1.95;;
11187;SDS011;5650;52.700;7.306;2024-03-02T10:26:54;4.85;;;1.70;;
11187;SDS011;5650;52.700;7.306;2024-03-02T10:29:29;5.28;;;2.22;;
11187;SDS011;5650;52.700;7.306;2024-03-02T10:31:56;4.40;;;1.90;;
11187;SDS011;5650;52.700;7.306;2024-03-02T10:34:34;4.13;;;1.85;;
11187;SDS011;5650;52.700;7.306;2024-03-02T10:37:04;4.50;;;1.80;;
11187;SDS011;5650;52.700;7.306;2024-03-02T10:39:34;3.47;;;2.30;;
11187;SDS011;5650;52.700;7.306;2024-03-02T10:42:03;2.42;;;1.83;;
11187;SDS011;5650;52.700;7.306;2024-03-02T10:44:34;4.97;;;2.00;;
11187;SDS011;5650;52.700;7.306;2024-03-02T10:47:05;3.67;;;2.00;;
11187;SDS011;5650;52.700;7.306;2024-03-02T10:49:35;3.50;;;1.90;;
11187;SDS011;5650;52.700;7.306;2024-03-02T10:52:09;4.53;;;1.90;;
11187;SDS011;5650;52.700;7.306;2024-03-02T10:54:39;2.38;;;2.05;;
11187;SDS011;5650;52.700;7.306;2024-03-02T10:57:07;3.25;;;2.28;;
11187;SDS011;5650;52.700;7.306;2024-03-02T10:59:37;3.55;;;2.05;;
11187;SDS011;5650;52.700;7.306;2024-03-02T11:02:13;6.80;;;2.10;;
11187;SDS011;5650;52.700;7.306;2024-03-02T11:04:42;2.63;;;2.00;;
11187;SDS011;5650;52.700;7.306;2024-03-02T11:07:11;2.95;;;1.90;;
11187;SDS011;5650;52.700;7.306;2024-03-02T11:09:44;3.67;;;2.15;;
11187;SDS011;5650;52.700;7.306;2024-03-02T11:12:28;4.53;;;2.13;;
11187;SDS011;5650;52.700;7.306;2024-03-02T11:14:57;3.75;;;2.28;;
11187;SDS011;5650;52.700;7.306;2024-03-02T11:17:26;2.38;;;1.95;;
11187;SDS011;5650;52.700;7.306;2024-03-02T11:19:57;3.70;;;2.42;;
11187;SDS011;5650;52.700;7.306;2024-03-02T11:22:31;3.55;;;2.00;;
11187;SDS011;5650;52.700;7.306;2024-03-02T11:24:59;5.50;;;2.10;;
11187;SDS011;5650;52.700;7.306;2024-03-02T11:30:51;3.50;;;2.20;;
11187;SDS011;5650;52.700;7.306;2024-03-02T11:33:25;3.10;;;2.10;;
11187;SDS011;5650;52.700;7.306;2024-03-02T11:35:57;4.93;;;2.50;;
11187;SDS011;5650;52.700;7.306;2024-03-02T11:38:42;3.20;;;1.90;;
11187;SDS011;5650;52.700;7.306;2024-03-02T11:41:13;5.55;;;2.00;;
11187;SDS011;5650;52.700;7.306;2024-03-02T11:43:41;3.50;;;2.08;;
11187;SDS011;5650;52.700;7.306;2024-03-02T11:46:10;3.78;;;2.05;;
11187;SDS011;5650;52.700;7.306;2024-03-02T11:48:38;2.53;;;1.60;;
11187;SDS011;5650;52.700;7.306;2024-03-02T11:51:06;3.53;;;1.98;;
11187;SDS011;5650;52.700;7.306;2024-03-02T11:53:33;3.63;;;1.95;;
11187;SDS011;5650;52.700;7.306;2024-03-02T11:56:05;5.15;;;2.17;;
11187;SDS011;5650;52.700;7.306;2024-03-02T11:58:42;5.78;;;2.10;;
11187;SDS011;5650;52.700;7.306;2024-03-02T12:01:13;6.68;;;2.03;;
11187;SDS011;5650;52.700;7.306;2024-03-02T12:03:40;4.07;;;2.00;;
11187;SDS011;5650;52.700;7.306;2024-03-02T12:06:13;4.57;;;2.55;;
11187;SDS011;5650;52.700;7.306;2024-03-02T12:08:42;5.10;;;2.47;;
11187;SDS011;5650;52.700;7.306;2024-03-02T12:11:14;3.97;;;2.00;;
11187;SDS011;5650;52.700;7.306;2024-03-02T12:13:51;3.03;;;1.85;;
11187;SDS011;5650;52.700;7.306;2024-03-02T12:16:22;3.80;;;1.60;;
11187;SDS011;5650;52.700;7.306;2024-03-02T12:18:50;3.30;;;1.60;;
11187;SDS011;5650;52.700;7.306;2024-03-02T12:21:19;4.28;;;1.67;;
11187;SDS011;5650;52.700;7.306;2024-03-02T12:23:46;3.63;;;1.75;;
11187;SDS011;5650;52.700;7.306;2024-03-02T12:26:16;2.75;;;1.70;;
11187;SDS011;5650;52.700;7.306;2024-03-02T12:28:43;3.25;;;1.90;;
11187;SDS011;5650;52.700;7.306;2024-03-02T12:31:17;3.33;;;1.90;;
11187;SDS011;5650;52.700;7.306;2024-03-02T12:33:44;4.03;;;2.00;;
11187;SDS011;5650;52.700;7.306;2024-03-02T12:36:13;2.75;;;1.80;;
11187;SDS011;5650;52.700;7.306;2024-03-02T12:38:42;5.60;;;1.90;;
11187;SDS011;5650;52.700;7.306;2024-03-02T12:41:27;2.40;;;1.60;;
11187;SDS011;5650;52.700;7.306;2024-03-02T12:44:04;2.60;;;1.60;;
11187;SDS011;5650;52.700;7.306;2024-03-02T12:46:31;2.92;;;2.00;;
11187;SDS011;5650;52.700;7.306;2024-03-02T12:49:07;2.10;;;1.85;;
11187;SDS011;5650;52.700;7.306;2024-03-02T12:51:36;2.88;;;1.88;;
11187;SDS011;5650;52.700;7.306;2024-03-02T12:54:05;3.28;;;1.73;;
11187;SDS011;5650;52.700;7.306;2024-03-02T12:56:40;4.57;;;2.20;;
11187;SDS011;5650;52.700;7.306;2024-03-02T12:59:16;2.17;;;1.67;;
11187;SDS011;5650;52.700;7.306;2024-03-02T13:01:52;4.80;;;1.80;;
11187;SDS011;5650;52.700;7.306;2024-03-02T13:04:31;2.75;;;1.63;;
11187;SDS011;5650;52.700;7.306;2024-03-02T13:07:01;4.03;;;2.13;;
11187;SDS011;5650;52.700;7.306;2024-03-02T13:09:29;3.30;;;2.22;;
11187;SDS011;5650;52.700;7.306;2024-03-02T13:12:06;6.25;;;2.25;;
11187;SDS011;5650;52.700;7.306;2024-03-02T13:14:39;4.35;;;1.95;;
11187;SDS011;5650;52.700;7.306;2024-03-02T13:17:12;2.30;;;1.92;;
11187;SDS011;5650;52.700;7.306;2024-03-02T13:19:52;3.33;;;2.13;;
11187;SDS011;5650;52.700;7.306;2024-03-02T13:22:20;2.75;;;1.73;;
11187;SDS011;5650;52.700;7.306;2024-03-02T13:24:47;3.58;;;2.10;;
11187;SDS011;5650;52.700;7.306;2024-03-02T13:27:17;2.95;;;1.95;;
11187;SDS011;5650;52.700;7.306;2024-03-02T13:29:49;2.30;;;1.80;;
11187;SDS011;5650;52.700;7.306;2024-03-02T13:32:16;2.67;;;1.70;;
11187;SDS011;5650;52.700;7.306;2024-03-02T13:34:48;2.40;;;1.88;;
11187;SDS011;5650;52.700;7.306;2024-03-02T13:37:16;2.38;;;1.83;;
11187;SDS011;5650;52.700;7.306;2024-03-02T13:39:43;4.28;;;2.15;;
11187;SDS011;5650;52.700;7.306;2024-03-02T13:42:10;3.42;;;2.20;;
11187;SDS011;5650;52.700;7.306;2024-03-02T13:44:41;2.35;;;1.83;;
11187;SDS011;5650;52.700;7.306;2024-03-02T13:47:10;2.83;;;1.75;;
11187;SDS011;5650;52.700;7.306;2024-03-02T13:49:51;3.63;;;1.90;;
11187;SDS011;5650;52.700;7.306;2024-03-02T13:52:21;2.72;;;1.90;;
11187;SDS011;5650;52.700;7.306;2024-03-02T13:54:48;2.63;;;1.90;;
11187;SDS011;5650;52.700;7.306;2024-03-02T13:57:20;3.92;;;2.08;;
11187;SDS011;5650;52.700;7.306;2024-03-02T13:59:52;2.55;;;2.13;;
11187;SDS011;5650;52.700;7.306;2024-03-02T14:02:19;3.72;;;2.30;;
11187;SDS011;5650;52.700;7.306;2024-03-02T14:04:51;3.30;;;1.95;;
11187;SDS011;5650;52.700;7.306;2024-03-02T14:07:27;3.30;;;1.90;;
11187;SDS011;5650;52.700;7.306;2024-03-02T14:09:57;2.70;;;1.65;;
11187;SDS011;5650;52.700;7.306;2024-03-02T14:12:24;2.67;;;1.98;;
11187;SDS011;5650;52.700;7.306;2024-03-02T14:14:55;3.00;;;2.10;;
11187;SDS011;5650;52.700;7.306;2024-03-02T14:17:23;3.63;;;1.80;;
11187;SDS011;5650;52.700;7.306;2024-03-02T14:19:50;2.80;;;1.77;;
11187;SDS011;5650;52.700;7.306;2024-03-02T14:22:18;3.67;;;1.90;;
11187;SDS011;5650;52.700;7.306;2024-03-02T14:24:45;4.03;;;1.80;;
11187;SDS011;5650;52.700;7.306;2024-03-02T14:27:16;3.83;;;1.60;;
11187;SDS011;5650;52.700;7.306;2024-03-02T14:29:46;3.53;;;1.65;;
11187;SDS011;5650;52.700;7.306;2024-03-02T14:32:17;2.70;;;1.75;;
11187;SDS011;5650;52.700;7.306;2024-03-02T14:34:47;3.80;;;1.75;;
11187;SDS011;5650;52.700;7.306;2024-03-02T14:37:14;3.80;;;1.85;;
11187;SDS011;5650;52.700;7.306;2024-03-02T14:39:41;2.30;;;1.70;;
11187;SDS011;5650;52.700;7.306;2024-03-02T14:42:12;3.28;;;1.40;;
11187;SDS011;5650;52.700;7.306;2024-03-02T14:44:42;4.18;;;1.98;;
11187;SDS011;5650;52.700;7.306;2024-03-02T14:47:09;3.25;;;1.50;;
11187;SDS011;5650;52.700;7.306;2024-03-02T14:49:40;2.47;;;1.60;;
11187;SDS011;5650;52.700;7.306;2024-03-02T14:52:08;1.75;;;1.30;;
11187;SDS011;5650;52.700;7.306;2024-03-02T14:54:38;2.60;;;1.77;;
11187;SDS011;5650;52.700;7.306;2024-03-02T14:57:07;2.85;;;1.80;;
11187;SDS011;5650;52.700;7.306;2024-03-02T14:59:38;3.50;;;1.60;;
11187;SDS011;5650;52.700;7.306;2024-03-02T15:02:05;3.90;;;1.55;;
11187;SDS011;5650;52.700;7.306;2024-03-02T15:04:38;2.17;;;1.40;;
11187;SDS011;5650;52.700;7.306;2024-03-02T15:07:11;4.50;;;1.92;;
11187;SDS011;5650;52.700;7.306;2024-03-02T15:09:41;3.63;;;1.92;;
11187;SDS011;5650;52.700;7.306;2024-03-02T15:12:11;2.95;;;1.83;;
11187;SDS011;5650;52.700;7.306;2024-03-02T15:14:42;1.90;;;1.58;;
11187;SDS011;5650;52.700;7.306;2024-03-02T15:17:15;2.22;;;1.60;;
11187;SDS011;5650;52.700;7.306;2024-03-02T15:19:44;3.72;;;1.80;;
11187;SDS011;5650;52.700;7.306;2024-03-02T15:22:12;3.65;;;1.90;;